createdAt,value
2023-03-31T00:01:43.475Z,99.90
2023-03-31T00:04:14.850Z,99.90
2023-03-31T00:06:47.050Z,99.90
2023-03-31T00:09:19.064Z,99.90
2023-03-31T00:11:50.647Z,99.90
2023-03-31T00:14:22.920Z,99.90
2023-03-31T00:16:53.916Z,99.90
2023-03-31T00:19:24.994Z,99.90
2023-03-31T00:21:56.085Z,99.90
2023-03-31T00:24:27.335Z,99.90
2023-03-31T00:26:58.582Z,99.90
2023-03-31T00:29:49.589Z,99.90
2023-03-31T00:32:20.700Z,99.90
2023-03-31T00:34:51.843Z,99.90
2023-03-31T00:37:22.989Z,99.90
2023-03-31T00:39:54.069Z,99.90
2023-03-31T00:42:25.256Z,99.90
2023-03-31T00:45:28.257Z,99.90
2023-03-31T00:48:04.373Z,99.90
2023-03-31T00:50:37.085Z,99.90
2023-03-31T00:53:10.883Z,99.90
2023-03-31T00:55:44.386Z,99.90
2023-03-31T00:58:18.800Z,99.90
2023-03-31T01:00:53.153Z,99.90
2023-03-31T01:03:24.373Z,99.90
2023-03-31T01:05:57.639Z,99.90
2023-03-31T01:08:29.920Z,99.90
2023-03-31T01:11:03.946Z,99.90
2023-03-31T01:13:36.678Z,99.90
2023-03-31T01:16:08.542Z,99.90
2023-03-31T01:18:40.213Z,99.90
2023-03-31T01:21:47.508Z,99.90
2023-03-31T01:24:45.690Z,99.90
2023-03-31T01:30:56.911Z,99.90
2023-03-31T01:34:19.680Z,99.90
2023-03-31T01:37:32.958Z,99.90
2023-03-31T01:40:35.362Z,99.90
2023-03-31T01:43:10.458Z,99.90
2023-03-31T01:45:51.159Z,99.90
2023-03-31T01:48:24.892Z,99.90
2023-03-31T01:50:58.765Z,99.90
2023-03-31T01:53:32.538Z,99.90
2023-03-31T01:56:07.948Z,99.90
2023-03-31T01:58:41.513Z,99.90
2023-03-31T02:03:56.247Z,99.90
2023-03-31T02:06:30.763Z,99.90
2023-03-31T02:11:46.291Z,99.90
2023-03-31T02:14:21.737Z,99.90
2023-03-31T02:16:56.667Z,99.90
2023-03-31T02:19:30.680Z,99.90
2023-03-31T02:22:03.738Z,99.90
2023-03-31T02:24:37.608Z,99.90
2023-03-31T02:27:28.213Z,99.90
2023-03-31T02:29:59.736Z,99.90
2023-03-31T02:32:33.380Z,99.90
2023-03-31T02:35:05.250Z,99.90
2023-03-31T02:37:36.925Z,99.90
2023-03-31T02:40:12.549Z,99.90
2023-03-31T02:42:44.765Z,99.90
2023-03-31T02:48:25.119Z,99.90
2023-03-31T02:51:45.156Z,99.90
2023-03-31T02:54:51.092Z,99.90
2023-03-31T02:57:36.777Z,99.90
2023-03-31T03:00:14.800Z,99.90
2023-03-31T03:02:53.217Z,99.90
2023-03-31T03:05:31.718Z,99.90
2023-03-31T03:08:07.145Z,99.90
2023-03-31T03:10:41.903Z,99.90
2023-03-31T03:13:17.481Z,99.90
2023-03-31T03:15:51.173Z,99.90
2023-03-31T03:18:21.837Z,99.90
2023-03-31T03:20:52.964Z,99.90
2023-03-31T03:23:23.499Z,99.90
2023-03-31T03:25:54.154Z,99.90
2023-03-31T03:28:24.757Z,99.90
2023-03-31T03:30:55.849Z,99.90
2023-03-31T03:33:26.636Z,99.90
2023-03-31T03:35:57.372Z,99.90
2023-03-31T03:38:27.965Z,99.90
2023-03-31T03:40:58.680Z,99.90
2023-03-31T03:43:29.324Z,99.90
2023-03-31T03:46:00.308Z,99.90
2023-03-31T03:48:31.083Z,99.90
2023-03-31T03:51:03.582Z,99.90
2023-03-31T03:53:34.511Z,99.90
2023-03-31T03:56:05.754Z,99.90
2023-03-31T03:58:36.862Z,99.90
2023-03-31T04:01:07.620Z,99.90
2023-03-31T04:03:38.678Z,99.90
2023-03-31T04:06:09.977Z,99.90
2023-03-31T04:08:40.655Z,99.90
2023-03-31T04:11:18.842Z,99.90
2023-03-31T04:14:08.215Z,99.90
2023-03-31T04:16:40.786Z,99.90
2023-03-31T04:19:13.458Z,99.90
2023-03-31T04:21:45.945Z,99.90
2023-03-31T04:24:19.151Z,99.90
2023-03-31T04:26:51.093Z,99.90
2023-03-31T04:29:23.723Z,99.90
2023-03-31T04:34:35.869Z,99.90
2023-03-31T04:37:08.761Z,99.90
2023-03-31T04:39:39.679Z,99.90
2023-03-31T04:42:10.668Z,99.90
2023-03-31T04:44:41.802Z,99.90
2023-03-31T04:47:12.698Z,99.90
2023-03-31T04:49:43.535Z,99.90
2023-03-31T04:52:14.464Z,99.90
2023-03-31T04:54:45.554Z,99.90
2023-03-31T04:57:16.662Z,99.90
2023-03-31T04:59:47.691Z,99.90
2023-03-31T05:02:21.064Z,99.90
2023-03-31T05:04:53.011Z,99.90
2023-03-31T05:07:23.936Z,99.90
2023-03-31T05:09:54.810Z,99.90
2023-03-31T05:12:25.995Z,99.90
2023-03-31T05:14:57.048Z,99.90
2023-03-31T05:17:28.087Z,99.90
2023-03-31T05:19:59.148Z,99.90
2023-03-31T05:22:30.651Z,99.90
2023-03-31T05:25:01.750Z,99.90
2023-03-31T05:27:32.749Z,99.90
2023-03-31T05:30:04.211Z,99.90
2023-03-31T05:32:34.793Z,99.90
2023-03-31T05:35:06.306Z,99.90
2023-03-31T05:37:36.993Z,99.90
2023-03-31T05:42:48.115Z,99.90
2023-03-31T05:45:19.483Z,99.90
2023-03-31T05:47:50.811Z,99.90
2023-03-31T05:50:22.034Z,99.90
2023-03-31T05:52:53.043Z,99.90
2023-03-31T05:55:23.989Z,99.90
2023-03-31T05:57:55.020Z,99.90
2023-03-31T06:00:26.723Z,99.90
2023-03-31T06:03:11.109Z,99.90
2023-03-31T06:05:41.862Z,99.90
2023-03-31T06:08:12.485Z,99.90
2023-03-31T06:10:43.227Z,99.90
2023-03-31T06:13:13.976Z,99.90
2023-03-31T06:18:22.668Z,99.90
2023-03-31T06:20:53.890Z,99.90
2023-03-31T06:23:25.491Z,99.90
2023-03-31T06:25:56.555Z,99.90
2023-03-31T06:28:27.690Z,99.90
2023-03-31T06:31:06.109Z,99.90
2023-03-31T06:33:38.061Z,99.90
2023-03-31T06:36:10.776Z,99.90
2023-03-31T06:38:41.766Z,99.90
2023-03-31T06:41:15.302Z,99.90
2023-03-31T06:43:46.672Z,99.90
2023-03-31T06:46:17.710Z,99.90
2023-03-31T06:48:48.363Z,99.90
2023-03-31T06:51:19.347Z,99.90
2023-03-31T06:53:50.317Z,99.90
2023-03-31T06:56:22.091Z,99.90
2023-03-31T06:58:53.166Z,99.90
2023-03-31T07:01:24.370Z,99.90
2023-03-31T07:03:55.056Z,99.90
2023-03-31T07:06:25.909Z,99.90
2023-03-31T07:08:57.182Z,99.90
2023-03-31T07:11:27.902Z,99.90
2023-03-31T07:13:58.676Z,99.90
2023-03-31T07:16:29.477Z,99.90
2023-03-31T07:19:02.254Z,99.90
2023-03-31T07:21:32.866Z,99.90
2023-03-31T07:24:03.599Z,99.90
2023-03-31T07:26:34.439Z,99.90
2023-03-31T07:29:05.018Z,99.90
2023-03-31T07:31:35.799Z,99.90
2023-03-31T07:34:06.816Z,99.90
2023-03-31T07:36:37.559Z,99.90
2023-03-31T07:39:09.462Z,99.90
2023-03-31T07:41:40.172Z,99.90
2023-03-31T07:44:10.878Z,99.90
2023-03-31T07:46:42.413Z,99.90
2023-03-31T07:49:14.641Z,99.90
2023-03-31T07:51:45.434Z,99.90
2023-03-31T07:54:16.166Z,99.90
2023-03-31T07:56:47.171Z,99.90
2023-03-31T07:59:17.852Z,99.90
2023-03-31T08:01:48.685Z,99.90
2023-03-31T08:04:19.727Z,99.90
2023-03-31T08:06:51.781Z,99.90
2023-03-31T08:09:23.593Z,99.90
2023-03-31T08:11:54.343Z,99.90
2023-03-31T08:14:39.963Z,99.90
2023-03-31T08:16:58.162Z,99.90
2023-03-31T08:19:29.168Z,99.90
2023-03-31T08:21:59.832Z,99.90
2023-03-31T08:24:31.247Z,99.90
2023-03-31T08:27:01.879Z,99.90
2023-03-31T08:29:32.477Z,99.90
2023-03-31T08:32:03.349Z,99.90
2023-03-31T08:34:34.729Z,99.90
2023-03-31T08:37:06.022Z,99.90
2023-03-31T08:39:37.523Z,99.90
2023-03-31T08:42:15.466Z,99.90
2023-03-31T08:44:48.662Z,99.90
2023-03-31T08:47:22.566Z,99.90
2023-03-31T08:49:56.871Z,99.90
2023-03-31T08:52:31.192Z,99.90
2023-03-31T08:55:04.757Z,99.90
2023-03-31T08:57:42.193Z,99.90
2023-03-31T09:00:18.914Z,99.90
2023-03-31T09:02:54.467Z,99.90
2023-03-31T09:05:59.644Z,99.90
2023-03-31T09:08:28.213Z,99.90
2023-03-31T09:11:04.981Z,99.90
2023-03-31T09:13:46.246Z,99.90
2023-03-31T09:16:19.455Z,99.90
2023-03-31T09:18:50.803Z,99.90
2023-03-31T09:21:24.878Z,99.90
2023-03-31T09:24:00.113Z,99.90
2023-03-31T09:26:36.201Z,99.90
2023-03-31T09:29:10.541Z,99.90
2023-03-31T09:31:45.314Z,99.90
2023-03-31T09:34:23.156Z,99.90
2023-03-31T09:36:53.875Z,99.90
2023-03-31T09:39:24.590Z,99.90
2023-03-31T09:41:56.934Z,99.90
2023-03-31T09:47:16.106Z,99.90
2023-03-31T09:49:53.431Z,99.90
2023-03-31T09:55:06.565Z,99.90
2023-03-31T09:57:40.861Z,99.90
2023-03-31T10:00:20.081Z,99.90
2023-03-31T10:02:53.046Z,99.90
2023-03-31T10:05:33.126Z,99.90
2023-03-31T10:08:30.709Z,99.90
2023-03-31T10:11:11.830Z,99.90
2023-03-31T10:16:31.273Z,99.90
2023-03-31T10:19:17.107Z,99.90
2023-03-31T10:21:50.802Z,99.90
2023-03-31T10:24:22.125Z,99.90
2023-03-31T10:26:55.530Z,99.90
2023-03-31T10:29:30.565Z,99.90
2023-03-31T10:32:08.222Z,99.90
2023-03-31T10:34:42.783Z,99.90
2023-03-31T10:37:18.162Z,99.90
2023-03-31T10:39:49.968Z,99.90
2023-03-31T10:42:25.907Z,99.90
2023-03-31T10:45:26.317Z,99.90
2023-03-31T10:47:50.143Z,99.90
2023-03-31T10:50:21.256Z,99.90
2023-03-31T10:52:52.045Z,99.90
2023-03-31T10:55:25.671Z,99.90
2023-03-31T10:57:59.705Z,99.90
2023-03-31T11:00:34.180Z,99.90
2023-03-31T11:03:46.918Z,99.90
2023-03-31T11:06:21.015Z,99.90
2023-03-31T11:08:56.579Z,99.90
2023-03-31T11:11:43.100Z,99.90
2023-03-31T11:14:17.417Z,99.90
2023-03-31T11:16:51.415Z,99.90
2023-03-31T11:19:30.017Z,99.90
2023-03-31T11:22:05.688Z,99.90
2023-03-31T11:24:45.096Z,99.90
2023-03-31T11:30:00.313Z,99.90
2023-03-31T11:32:38.138Z,99.90
2023-03-31T11:35:19.589Z,99.90
2023-03-31T11:38:02.040Z,99.90
2023-03-31T11:40:41.448Z,99.90
2023-03-31T11:43:17.803Z,99.90
2023-03-31T11:45:51.559Z,99.90
2023-03-31T11:48:25.846Z,99.90
2023-03-31T11:50:58.904Z,99.90
2023-03-31T11:53:32.728Z,99.90
2023-03-31T11:56:05.421Z,99.90
2023-03-31T11:58:40.480Z,99.90
2023-03-31T12:01:18.125Z,99.90
2023-03-31T12:03:56.087Z,99.90
2023-03-31T12:06:30.687Z,99.90
2023-03-31T12:09:12.065Z,99.90
2023-03-31T12:11:46.972Z,99.90
2023-03-31T12:14:29.331Z,99.90
2023-03-31T12:17:03.893Z,99.90
2023-03-31T12:19:39.392Z,99.90
2023-03-31T12:22:14.033Z,99.90
2023-03-31T12:24:44.778Z,99.90
2023-03-31T12:27:19.580Z,99.60
2023-03-31T12:29:54.913Z,99.90
2023-03-31T12:32:28.825Z,99.90
2023-03-31T12:35:02.504Z,99.60
2023-03-31T12:38:13.347Z,99.40
2023-03-31T12:40:56.820Z,99.90
2023-03-31T12:43:57.674Z,97.50
2023-03-31T12:46:44.297Z,98.00
2023-03-31T12:49:23.558Z,97.80
2023-03-31T12:52:02.720Z,95.50
2023-03-31T12:54:50.220Z,96.00
2023-03-31T12:57:24.545Z,95.30
2023-03-31T13:00:21.163Z,95.00
2023-03-31T13:02:53.329Z,95.80
2023-03-31T13:05:49.160Z,95.90
2023-03-31T13:08:54.032Z,94.40
2023-03-31T13:11:37.870Z,94.60
2023-03-31T13:14:14.747Z,95.30
2023-03-31T13:16:46.193Z,95.90
2023-03-31T13:19:28.350Z,95.70
2023-03-31T13:22:01.437Z,95.60
2023-03-31T13:24:34.952Z,93.90
2023-03-31T13:27:29.143Z,96.70
2023-03-31T13:29:59.954Z,95.30
2023-03-31T13:32:31.030Z,96.30
2023-03-31T13:37:57.841Z,96.60
2023-03-31T13:44:13.336Z,95.10
2023-03-31T13:47:00.204Z,99.00
2023-03-31T13:49:55.383Z,97.30
2023-03-31T13:52:42.595Z,98.40
2023-03-31T13:55:35.440Z,99.90
2023-03-31T13:58:42.979Z,99.90
2023-03-31T14:01:39.751Z,99.90
2023-03-31T14:04:43.886Z,99.90
2023-03-31T14:07:18.332Z,99.90
2023-03-31T14:09:50.726Z,99.90
2023-03-31T14:12:28.867Z,99.90
2023-03-31T14:14:59.470Z,99.90
2023-03-31T14:17:32.035Z,99.90
2023-03-31T14:20:58.637Z,99.90
2023-03-31T14:26:14.661Z,99.90
2023-03-31T14:28:57.361Z,99.90
2023-03-31T14:31:33.561Z,99.90
2023-03-31T14:34:23.918Z,99.90
2023-03-31T14:36:59.124Z,99.90
2023-03-31T14:39:50.490Z,99.90
2023-03-31T14:42:25.324Z,99.90
2023-03-31T14:44:59.944Z,99.90
2023-03-31T14:47:31.439Z,99.90
2023-03-31T14:50:05.162Z,99.90
2023-03-31T14:52:36.533Z,99.90
2023-03-31T14:55:15.647Z,99.90
2023-03-31T14:57:48.918Z,99.90
2023-03-31T15:00:23.365Z,99.90
2023-03-31T15:02:55.488Z,99.90
2023-03-31T15:05:32.031Z,99.90
2023-03-31T15:08:05.859Z,99.90
2023-03-31T15:10:40.160Z,99.90
2023-03-31T15:13:15.438Z,99.90
2023-03-31T15:15:47.026Z,99.90
2023-03-31T15:18:20.687Z,99.90
2023-03-31T15:20:52.346Z,99.90
2023-03-31T15:23:28.655Z,99.90
2023-03-31T15:26:03.240Z,99.90
2023-03-31T15:28:37.354Z,99.90
2023-03-31T15:31:10.429Z,99.90
2023-03-31T15:33:43.114Z,99.90
2023-03-31T15:36:16.461Z,99.90
2023-03-31T15:38:48.705Z,99.90
2023-03-31T15:41:21.406Z,99.90
2023-03-31T15:43:54.263Z,99.90
2023-03-31T15:46:27.470Z,99.90
2023-03-31T15:49:01.702Z,99.90
2023-03-31T15:51:36.526Z,99.90
2023-03-31T15:54:17.272Z,99.90
2023-03-31T15:56:48.801Z,99.90
2023-03-31T15:59:34.366Z,99.90
2023-03-31T16:02:04.331Z,99.90
2023-03-31T16:04:36.247Z,99.90
2023-03-31T16:07:10.945Z,99.90
2023-03-31T16:09:46.287Z,99.90
2023-03-31T16:12:22.776Z,99.90
2023-03-31T16:14:57.175Z,99.90
2023-03-31T16:17:32.283Z,99.90
2023-03-31T16:20:09.013Z,99.90
2023-03-31T16:22:42.559Z,99.90
2023-03-31T16:25:17.540Z,99.90
2023-03-31T16:27:51.277Z,99.90
2023-03-31T16:30:25.752Z,99.90
2023-03-31T16:33:04.906Z,99.90
2023-03-31T16:35:37.796Z,99.90
2023-03-31T16:38:10.648Z,99.90
2023-03-31T16:40:43.628Z,99.90
2023-03-31T16:43:16.760Z,99.90
2023-03-31T16:45:49.549Z,99.90
2023-03-31T16:48:22.930Z,99.90
2023-03-31T16:50:56.635Z,99.90
2023-03-31T16:53:29.614Z,99.90
2023-03-31T16:56:01.278Z,99.90
2023-03-31T16:58:32.139Z,99.90
2023-03-31T17:01:03.673Z,99.90
2023-03-31T17:03:36.894Z,99.90
2023-03-31T17:06:11.357Z,99.90
2023-03-31T17:08:42.691Z,99.90
2023-03-31T17:11:15.065Z,99.90
2023-03-31T17:13:46.966Z,99.90
2023-03-31T17:16:24.497Z,99.90
2023-03-31T17:18:50.695Z,99.90
2023-03-31T17:21:24.943Z,99.90
2023-03-31T17:23:55.635Z,99.90
2023-03-31T17:26:27.336Z,99.90
2023-03-31T17:28:58.099Z,99.90
2023-03-31T17:31:28.839Z,99.90
2023-03-31T17:34:01.571Z,99.90
2023-03-31T17:36:32.300Z,99.90
2023-03-31T17:39:05.259Z,99.90
2023-03-31T17:41:36.863Z,99.90
2023-03-31T17:44:08.961Z,99.90
2023-03-31T17:46:39.725Z,99.90
2023-03-31T17:49:11.253Z,99.90
2023-03-31T17:51:42.050Z,99.90
2023-03-31T17:54:12.944Z,99.90
2023-03-31T17:56:45.188Z,99.90
2023-03-31T17:59:15.826Z,99.90
2023-03-31T18:01:48.263Z,99.90
2023-03-31T18:04:19.509Z,99.90
2023-03-31T18:06:50.575Z,99.90
2023-03-31T18:09:21.404Z,99.90
2023-03-31T18:11:53.484Z,99.90
2023-03-31T18:14:24.136Z,99.90
2023-03-31T18:16:54.869Z,99.90
2023-03-31T18:19:25.502Z,99.90
2023-03-31T18:21:56.299Z,99.90
2023-03-31T18:24:27.307Z,99.90
2023-03-31T18:26:57.995Z,99.90
2023-03-31T18:34:29.065Z,99.90
2023-03-31T18:36:59.739Z,99.90
2023-03-31T18:39:30.370Z,99.90
2023-03-31T18:42:01.168Z,99.90
2023-03-31T18:44:31.978Z,99.90
2023-03-31T18:47:02.879Z,99.90
2023-03-31T18:49:33.795Z,99.90
2023-03-31T18:52:05.822Z,99.90
2023-03-31T18:54:36.739Z,99.90
2023-03-31T18:57:07.516Z,99.90
2023-03-31T18:59:38.261Z,99.90
2023-03-31T19:02:09.044Z,99.90
2023-03-31T19:04:39.697Z,99.90
2023-03-31T19:07:10.356Z,99.90
2023-03-31T19:09:41.125Z,99.90
2023-03-31T19:12:12.050Z,99.90
2023-03-31T19:14:43.137Z,99.90
2023-03-31T19:17:13.788Z,99.90
2023-03-31T19:19:48.202Z,99.90
2023-03-31T19:22:19.461Z,99.90
2023-03-31T19:24:50.136Z,99.90
2023-03-31T19:27:20.825Z,99.90
2023-03-31T19:29:51.808Z,99.90
2023-03-31T19:32:22.578Z,99.90
2023-03-31T19:34:54.668Z,99.90
2023-03-31T19:37:25.832Z,99.90
2023-03-31T19:39:58.428Z,99.90
2023-03-31T19:42:29.154Z,99.90
2023-03-31T19:44:59.940Z,99.90
2023-03-31T19:47:30.951Z,99.90
2023-03-31T19:50:02.239Z,99.90
2023-03-31T19:52:32.858Z,99.90
2023-03-31T19:55:04.151Z,99.90
2023-03-31T19:57:34.739Z,99.90
2023-03-31T20:00:06.344Z,99.90
2023-03-31T20:02:37.248Z,99.90
2023-03-31T20:05:09.965Z,99.90
2023-03-31T20:07:41.024Z,99.90
2023-03-31T20:10:14.124Z,99.90
2023-03-31T20:12:45.510Z,99.90
2023-03-31T20:15:17.222Z,99.90
2023-03-31T20:17:50.866Z,99.90
2023-03-31T20:20:22.829Z,99.90
2023-03-31T20:22:53.427Z,99.90
2023-03-31T20:25:26.352Z,99.90
2023-03-31T20:27:57.655Z,99.90
2023-03-31T20:30:28.820Z,99.90
2023-03-31T20:33:00.605Z,99.90
2023-03-31T20:35:33.493Z,99.90
2023-03-31T20:38:05.311Z,99.90
2023-03-31T20:40:37.035Z,99.90
2023-03-31T20:43:07.914Z,99.90
2023-03-31T20:45:38.803Z,99.90
2023-03-31T20:48:10.013Z,99.90
2023-03-31T20:50:42.144Z,99.90
2023-03-31T20:53:12.976Z,99.90
2023-03-31T20:55:46.449Z,99.90
2023-03-31T20:58:17.232Z,99.90
2023-03-31T21:00:48.272Z,99.90
2023-03-31T21:03:19.276Z,99.90
2023-03-31T21:05:50.524Z,99.90
2023-03-31T21:08:21.858Z,99.90
2023-03-31T21:10:53.571Z,99.90
2023-03-31T21:13:24.443Z,99.90
2023-03-31T21:15:55.986Z,99.90
2023-03-31T21:18:27.100Z,99.90
2023-03-31T21:20:59.712Z,99.90
2023-03-31T21:23:32.012Z,99.90
2023-03-31T21:26:05.026Z,99.90
2023-03-31T21:28:38.884Z,99.90
2023-03-31T21:31:11.563Z,99.90
2023-03-31T21:33:44.930Z,99.90
2023-03-31T21:36:18.688Z,99.90
2023-03-31T21:38:49.539Z,99.90
2023-03-31T21:41:22.803Z,99.90
2023-03-31T21:43:54.628Z,99.90
2023-03-31T21:46:28.035Z,99.90
2023-03-31T21:48:59.353Z,99.90
2023-03-31T21:51:30.250Z,99.90
2023-03-31T21:54:00.981Z,99.90
2023-03-31T21:56:32.748Z,99.90
2023-03-31T21:59:04.464Z,99.90
2023-03-31T22:01:36.205Z,99.90
2023-03-31T22:04:07.491Z,99.90
2023-03-31T22:06:39.537Z,99.90
2023-03-31T22:09:10.488Z,99.90
2023-03-31T22:11:41.712Z,99.90
2023-03-31T22:14:12.518Z,99.90
2023-03-31T22:16:43.517Z,99.90
2023-03-31T22:19:15.022Z,99.90
2023-03-31T22:21:49.439Z,99.90
2023-03-31T22:24:20.669Z,99.90
2023-03-31T22:26:51.458Z,99.90
2023-03-31T22:29:22.901Z,99.90
2023-03-31T22:31:54.224Z,99.90
2023-03-31T22:34:25.200Z,99.90
2023-03-31T22:36:56.065Z,99.90
2023-03-31T22:39:27.171Z,99.90
2023-03-31T22:41:57.830Z,99.90
2023-03-31T22:44:28.561Z,99.90
2023-03-31T22:46:59.502Z,99.90
2023-03-31T22:49:30.314Z,99.90
2023-03-31T22:52:01.014Z,99.90
2023-03-31T22:54:32.084Z,99.90
2023-03-31T22:57:02.887Z,99.90
2023-03-31T22:59:33.811Z,99.90
2023-03-31T23:02:06.081Z,99.90
2023-03-31T23:04:36.980Z,99.90
2023-03-31T23:07:07.556Z,99.90
2023-03-31T23:09:38.287Z,99.90
2023-03-31T23:12:09.110Z,99.90
2023-03-31T23:14:39.881Z,99.90
2023-03-31T23:17:10.831Z,99.90
2023-03-31T23:19:43.189Z,99.90
2023-03-31T23:22:13.880Z,99.90
2023-03-31T23:24:45.481Z,99.90
2023-03-31T23:27:16.094Z,99.90
2023-03-31T23:32:26.093Z,99.90
2023-03-31T23:34:57.101Z,99.90
2023-03-31T23:37:28.391Z,99.90
2023-03-31T23:39:59.031Z,99.90
2023-03-31T23:42:29.645Z,99.90
2023-03-31T23:45:00.241Z,99.90
2023-03-31T23:47:32.439Z,99.90
2023-03-31T23:50:03.012Z,99.90
2023-03-31T23:52:35.456Z,99.90
2023-03-31T23:55:06.831Z,99.90
2023-03-31T23:57:37.690Z,99.90
